Time;durP1;ratioP1;P1;durP2;ratioP2;P2;SDS_P1;SDS_P2;PMS_P1;PMS_P2;Temp;Humidity;BMP_temperature;BMP_pressure;BME280_temperature;BME280_humidity;BME280_pressure;Samples;Min_cycle;Max_cycle;Signal;HPM_P1;HPM_P2
2022/12/30 00:00:13;;;;;;;;;;;-0.10;99.90;;;;;;5116359;28;20390;-76
2022/12/30 00:02:38;;;;;;;;;;;-0.20;99.90;;;;;;5098058;28;19999;-76
2022/12/30 00:05:04;;;;;;;;;;;-0.20;99.90;;;;;;5116176;28;19947;-75
2022/12/30 00:07:30;;;;;;;;;;;-0.20;99.90;;;;;;5114631;28;19908;-75
2022/12/30 00:09:55;;;;;;;;;;;-0.20;99.90;;;;;;5116073;28;19912;-76
2022/12/30 00:34:31;;;;;;;;;;;-0.20;99.90;;;;;;5116315;28;20525;-75
2022/12/30 00:36:57;;;;;;;;;;;-0.20;99.90;;;;;;5096840;28;19908;-75
2022/12/30 00:39:22;;;;;;;;;;;-0.20;99.90;;;;;;5115473;28;20295;-76
2022/12/30 00:44:32;;;;;;;;;;;-0.30;99.90;;;;;;5115688;28;20013;-76
2022/12/30 00:46:58;;;;;;;;;;;-0.20;99.90;;;;;;5096958;28;20378;-76
2022/12/30 00:57:37;;;;;;;;;;;-0.20;99.90;;;;;;5115242;28;20287;-75
2022/12/30 01:00:04;;;;;;;;;;;-0.20;99.90;;;;;;5113781;28;19912;-75
2022/12/30 01:02:29;;;;;;;;;;;-0.20;99.90;;;;;;5115555;28;20372;-75
2022/12/30 01:04:55;;;;;;;;;;;-0.20;99.90;;;;;;5096828;28;19916;-75
2022/12/30 01:07:20;;;;;;;;;;;-0.20;99.90;;;;;;5096751;28;20325;-75
2022/12/30 01:09:46;;;;;;;;;;;-0.20;99.90;;;;;;5114945;28;19912;-75
2022/12/30 01:12:11;;;;;;;;;;;-0.20;99.90;;;;;;5114826;28;19912;-76
2022/12/30 01:14:38;;;;;;;;;;;-0.20;99.90;;;;;;5096434;28;19911;-75
2022/12/30 01:17:05;;;;;;;;;;;-0.10;99.90;;;;;;5114832;28;19908;-75
2022/12/30 01:19:30;;;;;;;;;;;-0.10;99.90;;;;;;5115035;28;19914;-76
2022/12/30 01:21:56;;;;;;;;;;;-0.10;99.90;;;;;;5114685;28;19998;-75
2022/12/30 01:24:22;;;;;;;;;;;-0.10;99.90;;;;;;5114668;28;19908;-75
2022/12/30 01:26:47;;;;;;;;;;;-0.10;99.90;;;;;;5114595;28;20356;-75
2022/12/30 01:29:27;;;;;;;;;;;-0.10;99.90;;;;;;5114857;28;19912;-76
2022/12/30 01:31:56;;;;;;;;;;;-0.10;99.90;;;;;;5114812;28;19919;-75
2022/12/30 01:34:26;;;;;;;;;;;-0.10;99.90;;;;;;5114799;28;19912;-75
2022/12/30 01:36:52;;;;;;;;;;;-0.10;99.90;;;;;;5114433;28;20283;-75
2022/12/30 01:39:17;;;;;;;;;;;0.00;99.90;;;;;;5114467;28;19961;-74
2022/12/30 01:41:43;;;;;;;;;;;0.00;99.90;;;;;;5114297;28;19908;-75
2022/12/30 01:44:27;;;;;;;;;;;0.00;99.90;;;;;;5114692;28;19912;-75
2022/12/30 01:46:53;;;;;;;;;;;0.00;99.90;;;;;;5114348;28;20050;-75
2022/12/30 01:49:18;;;;;;;;;;;0.00;99.90;;;;;;5096395;28;19912;-75
2022/12/30 01:51:44;;;;;;;;;;;0.00;99.90;;;;;;5096362;28;19919;-75
2022/12/30 01:54:09;;;;;;;;;;;0.10;99.90;;;;;;5095931;28;20371;-75
2022/12/30 01:56:38;;;;;;;;;;;0.10;99.90;;;;;;5114598;28;19917;-75
2022/12/30 01:59:05;;;;;;;;;;;0.10;99.90;;;;;;5114200;28;19908;-75
2022/12/30 02:01:33;;;;;;;;;;;0.10;99.90;;;;;;5114286;28;20002;-75
2022/12/30 02:04:02;;;;;;;;;;;0.00;99.90;;;;;;5113212;28;19943;-75
2022/12/30 02:06:48;;;;;;;;;;;0.00;99.90;;;;;;5107830;28;19955;-75
2022/12/30 02:09:13;;;;;;;;;;;0.00;99.90;;;;;;5111245;28;20000;-75
2022/12/30 02:11:39;;;;;;;;;;;0.00;99.90;;;;;;5111132;28;19951;-75
2022/12/30 02:14:05;;;;;;;;;;;0.00;99.90;;;;;;5113706;28;19961;-75
2022/12/30 02:16:30;;;;;;;;;;;-0.10;99.90;;;;;;5113840;28;19915;-75
2022/12/30 02:18:56;;;;;;;;;;;-0.10;99.90;;;;;;5095537;28;19908;-75
2022/12/30 02:21:39;;;;;;;;;;;-0.10;99.90;;;;;;5113874;28;19908;-75
2022/12/30 02:24:08;;;;;;;;;;;-0.10;99.90;;;;;;5113879;28;20364;-75
2022/12/30 02:26:49;;;;;;;;;;;-0.10;99.90;;;;;;5111027;28;20374;-75
2022/12/30 02:29:41;;;;;;;;;;;-0.20;99.90;;;;;;5110229;28;20328;-75
2022/12/30 02:32:16;;;;;;;;;;;-0.20;99.90;;;;;;5109545;28;19912;-75
2022/12/30 02:35:00;;;;;;;;;;;-0.20;99.90;;;;;;5113731;28;19912;-75
2022/12/30 02:37:37;;;;;;;;;;;-0.20;99.90;;;;;;5113509;28;19916;-75
2022/12/30 02:40:20;;;;;;;;;;;-0.30;99.90;;;;;;5095633;28;19947;-75
2022/12/30 02:45:35;;;;;;;;;;;-0.30;99.90;;;;;;5134335;28;19953;-75
2022/12/30 02:48:03;;;;;;;;;;;-0.30;99.90;;;;;;5134252;28;19955;-75
2022/12/30 02:53:16;;;;;;;;;;;-0.30;99.90;;;;;;5134639;28;20373;-75
2022/12/30 02:55:42;;;;;;;;;;;-0.30;99.90;;;;;;5134231;28;19915;-75
2022/12/30 02:58:07;;;;;;;;;;;-0.30;99.90;;;;;;5134414;28;20278;-75
2022/12/30 03:06:30;;;;;;;;;;;-0.30;99.90;;;;;;5138011;27;19958;-75
2022/12/30 03:08:56;;;;;;;;;;;-0.30;99.90;;;;;;5137875;27;19908;-75
2022/12/30 03:11:22;;;;;;;;;;;-0.40;99.90;;;;;;5137768;27;20390;-75
2022/12/30 03:13:50;;;;;;;;;;;-0.40;99.90;;;;;;5137613;27;19919;-74
2022/12/30 03:16:16;;;;;;;;;;;-0.40;99.90;;;;;;5137719;27;20048;-75
2022/12/30 03:18:42;;;;;;;;;;;-0.40;99.90;;;;;;5119217;27;20371;-75
2022/12/30 03:21:10;;;;;;;;;;;-0.40;99.90;;;;;;5137819;27;19908;-75
2022/12/30 03:29:07;;;;;;;;;;;-0.50;99.90;;;;;;5138097;27;19962;-75
2022/12/30 03:31:33;;;;;;;;;;;-0.50;99.90;;;;;;5137718;27;19907;-75
2022/12/30 03:33:59;;;;;;;;;;;-0.50;99.90;;;;;;5137109;27;19915;-75
2022/12/30 03:36:29;;;;;;;;;;;-0.60;99.90;;;;;;5118876;27;19959;-75
2022/12/30 03:39:04;;;;;;;;;;;-0.60;99.90;;;;;;5137207;27;20378;-75
2022/12/30 03:41:30;;;;;;;;;;;-0.60;99.90;;;;;;5137562;27;19946;-75
2022/12/30 03:43:55;;;;;;;;;;;-0.60;99.90;;;;;;5137065;27;20023;-74
2022/12/30 03:46:25;;;;;;;;;;;-0.60;99.90;;;;;;5137134;27;19915;-74
2022/12/30 03:48:51;;;;;;;;;;;-0.60;99.90;;;;;;5137338;27;19949;-75
2022/12/30 03:51:16;;;;;;;;;;;-0.60;99.90;;;;;;5137625;27;19938;-74
2022/12/30 03:53:42;;;;;;;;;;;-0.60;99.90;;;;;;5136912;27;19920;-75
2022/12/30 03:56:07;;;;;;;;;;;-0.60;99.90;;;;;;5118547;27;19915;-75
2022/12/30 03:58:33;;;;;;;;;;;-0.60;99.90;;;;;;5136874;27;19918;-75
2022/12/30 04:00:58;;;;;;;;;;;-0.60;99.90;;;;;;5129116;27;19908;-75
2022/12/30 04:03:24;;;;;;;;;;;-0.60;99.90;;;;;;5116195;28;19911;-75
2022/12/30 04:05:53;;;;;;;;;;;-0.60;99.90;;;;;;5116148;28;19919;-75
2022/12/30 04:08:20;;;;;;;;;;;-0.60;99.90;;;;;;5116409;28;20018;-75
2022/12/30 04:10:45;;;;;;;;;;;-0.60;99.90;;;;;;5115695;28;19911;-75
2022/12/30 04:13:11;;;;;;;;;;;-0.60;99.90;;;;;;5115976;28;19912;-75
2022/12/30 04:15:36;;;;;;;;;;;-0.60;99.90;;;;;;5115889;28;19923;-75
2022/12/30 04:18:02;;;;;;;;;;;-0.60;99.90;;;;;;5116302;28;19907;-75
2022/12/30 04:20:27;;;;;;;;;;;-0.60;99.90;;;;;;5115832;28;20343;-75
2022/12/30 04:22:56;;;;;;;;;;;-0.60;99.90;;;;;;5116205;28;19912;-74
2022/12/30 04:25:21;;;;;;;;;;;-0.60;99.90;;;;;;5115039;28;19915;-74
2022/12/30 04:27:47;;;;;;;;;;;-0.70;99.90;;;;;;5116026;28;19907;-74
2022/12/30 04:30:12;;;;;;;;;;;-0.60;99.90;;;;;;5097326;28;20355;-74
2022/12/30 04:32:38;;;;;;;;;;;-0.70;99.90;;;;;;5115512;28;20021;-75
2022/12/30 04:35:04;;;;;;;;;;;-0.70;99.90;;;;;;5112148;28;19916;-75
2022/12/30 04:37:29;;;;;;;;;;;-0.70;99.90;;;;;;5115432;28;19908;-75
2022/12/30 04:39:55;;;;;;;;;;;-0.70;99.90;;;;;;5115471;28;19916;-75
2022/12/30 04:42:20;;;;;;;;;;;-0.70;99.90;;;;;;5097153;28;19934;-75
2022/12/30 04:44:46;;;;;;;;;;;-0.70;99.90;;;;;;5115694;28;19919;-75
2022/12/30 04:47:11;;;;;;;;;;;-0.70;99.90;;;;;;5115264;28;19955;-75
2022/12/30 04:49:37;;;;;;;;;;;-0.70;99.90;;;;;;5115568;28;19915;-75
2022/12/30 04:52:03;;;;;;;;;;;-0.70;99.90;;;;;;5115778;28;19912;-75
2022/12/30 04:54:28;;;;;;;;;;;-0.70;99.90;;;;;;5115076;28;20006;-75
2022/12/30 04:56:54;;;;;;;;;;;-0.70;99.90;;;;;;5096889;28;19916;-75
2022/12/30 04:59:20;;;;;;;;;;;-0.70;99.90;;;;;;5115097;28;19912;-75
2022/12/30 05:01:45;;;;;;;;;;;-0.70;99.90;;;;;;5115261;28;20286;-75
2022/12/30 05:04:11;;;;;;;;;;;-0.70;99.90;;;;;;5115241;28;20428;-75
2022/12/30 05:06:37;;;;;;;;;;;-0.70;99.90;;;;;;5114987;28;20287;-75
2022/12/30 05:09:02;;;;;;;;;;;-0.70;99.90;;;;;;5096758;28;19919;-75
2022/12/30 05:11:28;;;;;;;;;;;-0.60;99.90;;;;;;5114755;28;20291;-75
2022/12/30 05:13:53;;;;;;;;;;;-0.60;99.90;;;;;;5114710;28;20294;-75
2022/12/30 05:16:19;;;;;;;;;;;-0.70;99.90;;;;;;5114845;28;20318;-74
2022/12/30 05:18:44;;;;;;;;;;;-0.70;99.90;;;;;;5115069;28;19914;-75
2022/12/30 05:21:10;;;;;;;;;;;-0.70;99.90;;;;;;5114970;28;19916;-74
2022/12/30 05:26:20;;;;;;;;;;;-0.70;99.90;;;;;;5115332;28;19918;-74
2022/12/30 05:28:46;;;;;;;;;;;-0.70;99.90;;;;;;5114570;28;19908;-74
2022/12/30 05:31:12;;;;;;;;;;;-0.70;99.90;;;;;;5114705;28;19915;-74
2022/12/30 05:33:38;;;;;;;;;;;-0.70;99.90;;;;;;5114382;28;20447;-74
2022/12/30 05:36:04;;;;;;;;;;;-0.80;99.90;;;;;;5096234;28;20019;-74
2022/12/30 05:38:30;;;;;;;;;;;-0.80;99.90;;;;;;5114452;28;20002;-74
2022/12/30 05:40:55;;;;;;;;;;;-0.80;99.90;;;;;;5096243;28;19955;-74
2022/12/30 05:43:21;;;;;;;;;;;-0.80;99.90;;;;;;5114631;28;19912;-74
2022/12/30 05:45:46;;;;;;;;;;;-0.80;99.90;;;;;;5114376;28;19915;-74
2022/12/30 05:48:12;;;;;;;;;;;-0.80;99.90;;;;;;5113176;28;19916;-75
2022/12/30 05:50:38;;;;;;;;;;;-0.90;99.90;;;;;;5114158;28;19995;-74
2022/12/30 05:53:04;;;;;;;;;;;-0.80;99.90;;;;;;5095822;28;19915;-74
2022/12/30 05:55:30;;;;;;;;;;;-0.90;99.90;;;;;;5112917;28;19916;-75
2022/12/30 05:57:56;;;;;;;;;;;-0.90;99.90;;;;;;5114052;28;19911;-75
2022/12/30 06:00:21;;;;;;;;;;;-0.90;99.90;;;;;;5114040;28;19915;-75
2022/12/30 06:02:47;;;;;;;;;;;-0.90;99.90;;;;;;5112329;28;19934;-75
2022/12/30 06:05:12;;;;;;;;;;;-1.00;99.90;;;;;;5114038;28;20342;-75
2022/12/30 06:07:38;;;;;;;;;;;-1.00;99.90;;;;;;5113959;28;20347;-75
2022/12/30 06:10:04;;;;;;;;;;;-1.00;99.90;;;;;;5113984;28;19912;-75
2022/12/30 06:12:30;;;;;;;;;;;-0.90;99.90;;;;;;5111329;28;19912;-75
2022/12/30 06:14:55;;;;;;;;;;;-1.00;99.90;;;;;;5112800;28;19922;-74
2022/12/30 06:17:21;;;;;;;;;;;-1.00;99.90;;;;;;5110759;28;19912;-75
2022/12/30 06:19:46;;;;;;;;;;;-1.00;99.90;;;;;;5112044;28;19911;-75
2022/12/30 06:22:12;;;;;;;;;;;-1.00;99.90;;;;;;5110667;28;19915;-75
2022/12/30 06:24:40;;;;;;;;;;;-1.10;99.90;;;;;;5111524;28;20294;-75
2022/12/30 06:27:06;;;;;;;;;;;-1.10;99.90;;;;;;5114128;28;19908;-75
2022/12/30 06:29:31;;;;;;;;;;;-1.10;99.90;;;;;;5114438;28;19956;-75
2022/12/30 06:31:57;;;;;;;;;;;-1.20;99.90;;;;;;5112817;28;19924;-75
2022/12/30 06:34:22;;;;;;;;;;;-1.20;99.90;;;;;;5114962;28;19919;-75
2022/12/30 06:36:48;;;;;;;;;;;-1.20;99.90;;;;;;5118347;28;19922;-75
2022/12/30 06:39:14;;;;;;;;;;;-1.20;99.90;;;;;;5116675;28;19912;-74
2022/12/30 06:41:39;;;;;;;;;;;-1.30;99.90;;;;;;5117727;27;19958;-75
2022/12/30 06:44:05;;;;;;;;;;;-1.30;99.90;;;;;;5117849;28;19921;-75
2022/12/30 06:46:30;;;;;;;;;;;-1.30;99.90;;;;;;5117791;28;19998;-75
2022/12/30 06:48:59;;;;;;;;;;;-1.30;99.90;;;;;;5117728;28;19908;-75
2022/12/30 06:51:24;;;;;;;;;;;-1.30;99.90;;;;;;5117676;28;19912;-75
2022/12/30 06:53:50;;;;;;;;;;;-1.30;99.90;;;;;;5117606;28;19912;-75
2022/12/30 06:56:16;;;;;;;;;;;-1.30;99.90;;;;;;5117593;28;20363;-76
2022/12/30 06:58:41;;;;;;;;;;;-1.30;99.90;;;;;;5117601;28;19918;-76
2022/12/30 07:01:07;;;;;;;;;;;-1.30;99.90;;;;;;5116404;28;20276;-76
2022/12/30 07:03:32;;;;;;;;;;;-1.30;99.90;;;;;;5117468;28;20350;-76
2022/12/30 07:05:58;;;;;;;;;;;-1.30;99.90;;;;;;5117422;28;19964;-75
2022/12/30 07:08:23;;;;;;;;;;;-1.30;99.90;;;;;;5117369;28;19960;-76
2022/12/30 07:10:49;;;;;;;;;;;-1.30;99.90;;;;;;5117656;28;19915;-75
2022/12/30 07:13:15;;;;;;;;;;;-1.30;99.90;;;;;;5117437;28;20372;-74
2022/12/30 07:15:40;;;;;;;;;;;-1.30;99.90;;;;;;5117234;28;20352;-75
2022/12/30 07:18:06;;;;;;;;;;;-1.30;99.90;;;;;;5117165;28;19908;-75
2022/12/30 07:20:32;;;;;;;;;;;-1.30;99.90;;;;;;5117452;28;19908;-76
2022/12/30 07:22:57;;;;;;;;;;;-1.20;99.90;;;;;;5115856;28;19908;-76
2022/12/30 07:25:23;;;;;;;;;;;-1.20;99.90;;;;;;5117086;28;19911;-75
2022/12/30 07:27:48;;;;;;;;;;;-1.20;99.90;;;;;;5117260;28;19912;-75
2022/12/30 07:30:14;;;;;;;;;;;-1.20;99.90;;;;;;5117267;28;19998;-75
2022/12/30 07:32:39;;;;;;;;;;;-1.30;99.90;;;;;;5115571;28;20398;-75
2022/12/30 07:35:07;;;;;;;;;;;-1.30;99.90;;;;;;5117623;28;19915;-74
2022/12/30 07:37:34;;;;;;;;;;;-1.40;99.90;;;;;;5116801;28;19919;-76
2022/12/30 07:39:59;;;;;;;;;;;-1.30;99.90;;;;;;5115583;28;19972;-76
2022/12/30 07:42:25;;;;;;;;;;;-1.30;99.90;;;;;;5115354;28;19998;-75
2022/12/30 07:44:50;;;;;;;;;;;-1.40;99.90;;;;;;5116347;28;19912;-75
2022/12/30 07:47:16;;;;;;;;;;;-1.40;99.90;;;;;;5115691;28;19911;-75
2022/12/30 07:49:41;;;;;;;;;;;-1.40;99.90;;;;;;5116502;28;19992;-75
2022/12/30 07:52:07;;;;;;;;;;;-1.40;99.90;;;;;;5116490;28;19912;-75
2022/12/30 07:54:32;;;;;;;;;;;-1.40;99.90;;;;;;5115155;28;19923;-75
2022/12/30 07:56:58;;;;;;;;;;;-1.40;99.90;;;;;;5116438;28;19969;-75
2022/12/30 07:59:24;;;;;;;;;;;-1.40;99.90;;;;;;5116393;28;19957;-75
2022/12/30 08:01:49;;;;;;;;;;;-1.40;99.90;;;;;;5116264;28;19916;-75
2022/12/30 08:04:15;;;;;;;;;;;-1.40;99.90;;;;;;5115418;28;19943;-75
2022/12/30 08:06:40;;;;;;;;;;;-1.40;99.90;;;;;;5116851;28;19907;-75
2022/12/30 08:09:06;;;;;;;;;;;-1.40;99.90;;;;;;5114921;28;19998;-75
2022/12/30 08:11:32;;;;;;;;;;;-1.40;99.90;;;;;;5116183;28;19912;-75
2022/12/30 08:13:58;;;;;;;;;;;-1.40;99.90;;;;;;5115980;27;19908;-75
2022/12/30 08:16:23;;;;;;;;;;;-1.40;99.90;;;;;;5116271;28;20016;-75
2022/12/30 08:18:49;;;;;;;;;;;-1.30;99.90;;;;;;5097040;28;20409;-75
2022/12/30 08:21:15;;;;;;;;;;;-1.30;99.90;;;;;;5114617;28;19912;-75
2022/12/30 08:23:44;;;;;;;;;;;-1.20;99.90;;;;;;5106878;28;20268;-75
2022/12/30 08:26:11;;;;;;;;;;;-1.20;99.90;;;;;;5114568;28;19919;-75
2022/12/30 08:28:36;;;;;;;;;;;-1.20;99.90;;;;;;5115822;28;19908;-75
2022/12/30 08:31:10;;;;;;;;;;;-1.10;99.90;;;;;;5115758;28;20385;-75
2022/12/30 08:33:36;;;;;;;;;;;-1.10;99.90;;;;;;5115642;28;19972;-75
2022/12/30 08:36:03;;;;;;;;;;;-1.10;99.90;;;;;;5115605;28;19912;-75
2022/12/30 08:38:28;;;;;;;;;;;-1.10;99.90;;;;;;5115636;28;20315;-74
2022/12/30 08:40:54;;;;;;;;;;;-1.00;99.90;;;;;;5115503;28;19914;-75
2022/12/30 08:43:20;;;;;;;;;;;-1.00;99.90;;;;;;5115475;28;19987;-74
2022/12/30 08:45:54;;;;;;;;;;;-1.00;99.90;;;;;;5114146;28;20321;-75
2022/12/30 08:48:20;;;;;;;;;;;-0.90;99.90;;;;;;5115730;28;20321;-75
2022/12/30 08:50:45;;;;;;;;;;;-0.90;99.90;;;;;;5115372;28;19916;-75
2022/12/30 08:53:11;;;;;;;;;;;-0.80;99.90;;;;;;5115294;28;20003;-75
2022/12/30 08:55:37;;;;;;;;;;;-0.80;99.90;;;;;;5113996;28;20280;-75
2022/12/30 08:58:02;;;;;;;;;;;-0.70;99.90;;;;;;5114786;28;20000;-75
2022/12/30 09:00:28;;;;;;;;;;;-0.60;99.90;;;;;;5115509;28;19916;-75
2022/12/30 09:02:53;;;;;;;;;;;-0.50;99.90;;;;;;5114191;28;20430;-75
2022/12/30 09:05:19;;;;;;;;;;;-0.40;99.90;;;;;;5115135;28;19912;-75
2022/12/30 09:07:44;;;;;;;;;;;-0.30;99.90;;;;;;5115025;28;20329;-75
2022/12/30 09:10:11;;;;;;;;;;;-0.20;99.90;;;;;;5115026;28;19912;-75
2022/12/30 09:12:37;;;;;;;;;;;-0.10;99.90;;;;;;5115004;28;19912;-75
2022/12/30 09:15:03;;;;;;;;;;;0.00;99.90;;;;;;5114875;28;19965;-75
2022/12/30 09:17:29;;;;;;;;;;;0.10;99.90;;;;;;5115119;28;19912;-76
2022/12/30 09:19:54;;;;;;;;;;;0.20;99.90;;;;;;5113566;28;19915;-76
2022/12/30 09:22:20;;;;;;;;;;;0.20;99.90;;;;;;5114691;28;19921;-75
2022/12/30 09:24:45;;;;;;;;;;;0.30;99.90;;;;;;5115039;28;19919;-75
2022/12/30 09:27:11;;;;;;;;;;;0.40;99.90;;;;;;5114741;28;20376;-75
2022/12/30 09:29:36;;;;;;;;;;;0.40;99.90;;;;;;5115013;28;19951;-75
2022/12/30 09:32:02;;;;;;;;;;;0.50;99.90;;;;;;5114498;28;19923;-76
2022/12/30 09:34:28;;;;;;;;;;;0.50;99.90;;;;;;5113601;28;19920;-76
2022/12/30 09:36:53;;;;;;;;;;;0.50;99.90;;;;;;5111874;28;19915;-75
2022/12/30 09:39:30;;;;;;;;;;;0.60;99.90;;;;;;5093990;28;19913;-75
2022/12/30 09:44:55;;;;;;;;;;;0.90;99.90;;;;;;5097073;28;19915;-76
2022/12/30 09:47:23;;;;;;;;;;;1.00;99.90;;;;;;5114356;28;20004;-76
2022/12/30 09:49:52;;;;;;;;;;;1.10;99.90;;;;;;5114621;28;19912;-75
2022/12/30 09:52:28;;;;;;;;;;;1.20;99.90;;;;;;5114271;28;20316;-76
2022/12/30 09:55:14;;;;;;;;;;;1.30;99.90;;;;;;5114843;28;19911;-76
2022/12/30 09:57:41;;;;;;;;;;;1.50;99.90;;;;;;5113680;28;19908;-76
2022/12/30 10:00:12;;;;;;;;;;;1.60;99.90;;;;;;5114316;28;19914;-75
2022/12/30 10:02:45;;;;;;;;;;;1.70;99.90;;;;;;5114193;28;20081;-76
2022/12/30 10:05:12;;;;;;;;;;;1.80;99.90;;;;;;5114221;28;19908;-76
2022/12/30 10:07:58;;;;;;;;;;;1.90;99.90;;;;;;5114171;28;19912;-76
2022/12/30 10:10:27;;;;;;;;;;;1.90;99.90;;;;;;5068288;28;19995;-76
2022/12/30 10:12:55;;;;;;;;;;;2.00;99.90;;;;;;5118333;28;19908;-76
2022/12/30 10:15:31;;;;;;;;;;;2.10;99.90;;;;;;5100032;28;19911;-76
2022/12/30 10:18:12;;;;;;;;;;;2.10;99.90;;;;;;5118346;28;19908;-75
2022/12/30 10:20:54;;;;;;;;;;;2.20;99.90;;;;;;5118335;28;19922;-76
2022/12/30 10:23:36;;;;;;;;;;;2.30;99.90;;;;;;5118130;28;19907;-76
2022/12/30 10:26:13;;;;;;;;;;;2.40;99.90;;;;;;5118453;28;19909;-76
2022/12/30 10:28:43;;;;;;;;;;;2.50;99.90;;;;;;5118054;28;20421;-76
2022/12/30 10:31:14;;;;;;;;;;;2.60;99.90;;;;;;5099803;28;19919;-76
2022/12/30 10:33:40;;;;;;;;;;;2.60;99.90;;;;;;5117862;28;19924;-76
2022/12/30 10:36:15;;;;;;;;;;;2.70;99.90;;;;;;5099742;28;19915;-76
2022/12/30 10:38:41;;;;;;;;;;;2.80;99.90;;;;;;5117898;28;20353;-76
2022/12/30 10:41:16;;;;;;;;;;;2.90;99.90;;;;;;5099711;28;20312;-76
2022/12/30 10:43:59;;;;;;;;;;;3.00;99.90;;;;;;5117742;28;19907;-76
2022/12/30 10:46:40;;;;;;;;;;;3.00;99.90;;;;;;5117875;28;19908;-76
2022/12/30 10:49:09;;;;;;;;;;;3.10;99.90;;;;;;5117772;28;19965;-76
2022/12/30 10:51:34;;;;;;;;;;;3.10;99.90;;;;;;5095378;28;19908;-76
2022/12/30 10:54:00;;;;;;;;;;;3.20;99.90;;;;;;5097068;28;20007;-75
2022/12/30 10:56:27;;;;;;;;;;;3.20;99.90;;;;;;5097175;28;19908;-76
2022/12/30 10:58:58;;;;;;;;;;;3.30;99.90;;;;;;5078910;28;19958;-76
2022/12/30 11:01:27;;;;;;;;;;;3.40;99.90;;;;;;5097000;28;19951;-75
2022/12/30 11:03:56;;;;;;;;;;;3.40;99.90;;;;;;5096921;28;19916;-75
2022/12/30 11:06:26;;;;;;;;;;;3.50;99.90;;;;;;5097536;28;19913;-75
2022/12/30 11:08:52;;;;;;;;;;;3.50;99.90;;;;;;5111331;28;19912;-75
2022/12/30 11:11:18;;;;;;;;;;;3.60;99.90;;;;;;5117034;28;19915;-75
2022/12/30 11:16:40;;;;;;;;;;;3.70;99.90;;;;;;5117444;28;19919;-76
2022/12/30 11:19:17;;;;;;;;;;;3.70;99.90;;;;;;5115731;28;19916;-76
2022/12/30 11:21:42;;;;;;;;;;;3.80;99.90;;;;;;5116734;28;19969;-76
2022/12/30 11:24:13;;;;;;;;;;;3.80;99.90;;;;;;5099379;28;19916;-75
2022/12/30 11:26:44;;;;;;;;;;;3.90;99.90;;;;;;5098911;28;20063;-75
2022/12/30 11:29:14;;;;;;;;;;;4.00;99.90;;;;;;5117250;28;19930;-75
2022/12/30 11:31:41;;;;;;;;;;;4.00;99.90;;;;;;5117342;28;20054;-75
2022/12/30 11:34:16;;;;;;;;;;;4.10;99.90;;;;;;5116759;28;19919;-75
2022/12/30 11:36:41;;;;;;;;;;;4.10;99.90;;;;;;5117099;28;19908;-75
2022/12/30 11:39:07;;;;;;;;;;;4.20;99.90;;;;;;5114903;28;19915;-74
2022/12/30 11:41:33;;;;;;;;;;;4.30;99.90;;;;;;5099166;28;20006;-74
2022/12/30 11:43:59;;;;;;;;;;;4.30;99.90;;;;;;5096341;28;19947;-75
2022/12/30 11:46:32;;;;;;;;;;;4.40;99.90;;;;;;5096209;28;20368;-74
2022/12/30 11:49:00;;;;;;;;;;;4.50;99.90;;;;;;5096129;28;19978;-74
2022/12/30 11:51:26;;;;;;;;;;;4.50;99.90;;;;;;5096137;28;20418;-74
2022/12/30 11:54:03;;;;;;;;;;;4.60;99.90;;;;;;5095898;28;19908;-74
2022/12/30 11:56:29;;;;;;;;;;;4.60;99.90;;;;;;5095986;28;20036;-74
2022/12/30 11:59:07;;;;;;;;;;;4.70;99.90;;;;;;5096291;28;20363;-74
2022/12/30 12:01:46;;;;;;;;;;;4.60;99.90;;;;;;5095952;28;19947;-74
2022/12/30 12:04:30;;;;;;;;;;;4.70;99.90;;;;;;5095904;28;19908;-74
2022/12/30 12:06:56;;;;;;;;;;;4.80;99.90;;;;;;5095767;28;19999;-74
2022/12/30 12:09:28;;;;;;;;;;;4.90;99.90;;;;;;5095733;28;19919;-73
2022/12/30 12:11:55;;;;;;;;;;;5.00;99.90;;;;;;5095945;28;20271;-74
2022/12/30 12:14:24;;;;;;;;;;;5.00;99.90;;;;;;5095507;28;19919;-74
2022/12/30 12:17:13;;;;;;;;;;;5.00;99.90;;;;;;5113806;28;19957;-74
2022/12/30 12:19:57;;;;;;;;;;;5.10;99.90;;;;;;5117846;27;19919;-74
2022/12/30 12:22:28;;;;;;;;;;;5.10;99.90;;;;;;5115370;28;19915;-73
2022/12/30 12:24:58;;;;;;;;;;;5.20;99.90;;;;;;5114919;28;19998;-73
2022/12/30 12:27:26;;;;;;;;;;;5.20;99.90;;;;;;5097293;28;19912;-74
2022/12/30 12:29:53;;;;;;;;;;;5.30;99.90;;;;;;5114484;28;19912;-73
2022/12/30 12:32:34;;;;;;;;;;;5.30;99.90;;;;;;5096335;28;19919;-73
2022/12/30 12:35:03;;;;;;;;;;;5.40;99.90;;;;;;5128104;27;19934;-73
2022/12/30 12:37:48;;;;;;;;;;;5.50;99.90;;;;;;5115364;28;19919;-73
2022/12/30 12:40:31;;;;;;;;;;;5.60;99.90;;;;;;5121156;27;19911;-73
2022/12/30 12:43:18;;;;;;;;;;;5.70;99.90;;;;;;5111065;28;19915;-73
2022/12/30 12:45:47;;;;;;;;;;;5.80;99.90;;;;;;5115266;28;20341;-73
2022/12/30 12:48:18;;;;;;;;;;;5.80;99.90;;;;;;5114177;28;19907;-73
2022/12/30 12:51:10;;;;;;;;;;;5.90;99.90;;;;;;5115151;28;19915;-73
2022/12/30 12:53:55;;;;;;;;;;;6.00;99.90;;;;;;5110566;28;19954;-73
2022/12/30 12:56:31;;;;;;;;;;;6.00;99.90;;;;;;5114947;28;19958;-72
2022/12/30 12:59:11;;;;;;;;;;;6.10;99.90;;;;;;5113867;28;19933;-73
2022/12/30 13:02:00;;;;;;;;;;;6.20;99.90;;;;;;5114831;28;19908;-73
2022/12/30 13:04:25;;;;;;;;;;;6.30;99.90;;;;;;5088712;27;19940;-73
2022/12/30 13:07:01;;;;;;;;;;;6.30;99.90;;;;;;5114766;28;19966;-73
2022/12/30 13:09:39;;;;;;;;;;;6.40;99.90;;;;;;5096666;28;19957;-72
2022/12/30 13:12:11;;;;;;;;;;;6.50;99.90;;;;;;5114356;28;19964;-73
2022/12/30 13:14:40;;;;;;;;;;;6.70;99.90;;;;;;5114780;28;19916;-73
2022/12/30 13:17:32;;;;;;;;;;;6.70;99.90;;;;;;5115412;28;20294;-72
2022/12/30 13:20:08;;;;;;;;;;;6.80;99.90;;;;;;5090864;28;19955;-73
2022/12/30 13:22:35;;;;;;;;;;;6.80;99.90;;;;;;5114962;28;19958;-72
2022/12/30 13:25:02;;;;;;;;;;;6.80;99.90;;;;;;5113382;28;19908;-73
2022/12/30 13:27:29;;;;;;;;;;;6.80;99.90;;;;;;5114568;28;20424;-72
2022/12/30 13:29:56;;;;;;;;;;;6.80;99.90;;;;;;5114657;28;20377;-72
2022/12/30 13:32:40;;;;;;;;;;;6.80;99.90;;;;;;5112503;28;19919;-72
2022/12/30 13:35:25;;;;;;;;;;;6.80;99.90;;;;;;5093387;28;19919;-73
2022/12/30 13:37:50;;;;;;;;;;;6.80;99.90;;;;;;5096696;28;19954;-74
2022/12/30 13:40:18;;;;;;;;;;;6.80;99.90;;;;;;5094114;28;19909;-72
2022/12/30 13:43:02;;;;;;;;;;;6.70;99.90;;;;;;5093972;28;19908;-72
2022/12/30 13:45:36;;;;;;;;;;;6.80;99.90;;;;;;5094108;28;20008;-71
2022/12/30 13:48:04;;;;;;;;;;;6.80;99.90;;;;;;5094021;28;19909;-72
2022/12/30 13:50:31;;;;;;;;;;;6.80;99.90;;;;;;5094017;28;19962;-71
2022/12/30 13:52:59;;;;;;;;;;;6.80;99.90;;;;;;5094006;28;19908;-73
2022/12/30 13:55:27;;;;;;;;;;;6.80;99.90;;;;;;5093953;28;19912;-74
2022/12/30 13:57:58;;;;;;;;;;;6.80;99.90;;;;;;5094069;28;19908;-73
2022/12/30 14:00:26;;;;;;;;;;;6.80;99.90;;;;;;5093853;28;20424;-72
2022/12/30 14:03:02;;;;;;;;;;;6.70;99.90;;;;;;5093927;28;20003;-74
2022/12/30 14:05:31;;;;;;;;;;;6.70;99.90;;;;;;5093862;28;19908;-73
2022/12/30 14:07:57;;;;;;;;;;;6.70;99.90;;;;;;5093835;28;20356;-74
2022/12/30 14:10:22;;;;;;;;;;;6.60;99.90;;;;;;5094100;28;19915;-74
2022/12/30 14:12:54;;;;;;;;;;;6.60;99.90;;;;;;5093739;28;20394;-73
2022/12/30 14:15:31;;;;;;;;;;;6.60;99.90;;;;;;5093659;28;19912;-73
2022/12/30 14:18:16;;;;;;;;;;;6.50;99.90;;;;;;5075693;28;19908;-74
2022/12/30 14:20:42;;;;;;;;;;;6.40;99.90;;;;;;5093680;28;20275;-74
2022/12/30 14:23:28;;;;;;;;;;;6.30;99.90;;;;;;5093649;28;19908;-74
2022/12/30 14:26:13;;;;;;;;;;;6.20;99.90;;;;;;5093434;28;20343;-73
2022/12/30 14:28:42;;;;;;;;;;;6.10;99.90;;;;;;5093632;28;19919;-73
2022/12/30 14:31:21;;;;;;;;;;;6.00;99.90;;;;;;5093621;28;19912;-73
2022/12/30 14:33:48;;;;;;;;;;;5.90;99.90;;;;;;5093511;28;20376;-74
2022/12/30 14:36:13;;;;;;;;;;;5.90;99.90;;;;;;5093512;28;19920;-73
2022/12/30 14:38:42;;;;;;;;;;;5.80;99.90;;;;;;5093539;28;20383;-72
2022/12/30 14:41:13;;;;;;;;;;;5.70;99.90;;;;;;5093807;28;20311;-73
2022/12/30 14:43:43;;;;;;;;;;;5.60;99.90;;;;;;5075262;28;19962;-74
2022/12/30 14:46:27;;;;;;;;;;;5.60;99.90;;;;;;5093338;28;19912;-73
2022/12/30 14:48:56;;;;;;;;;;;5.50;99.90;;;;;;5093424;28;19912;-74
2022/12/30 14:51:22;;;;;;;;;;;5.40;99.90;;;;;;5093398;28;20007;-74
2022/12/30 14:53:48;;;;;;;;;;;5.30;99.90;;;;;;5093294;28;19952;-74
2022/12/30 14:56:16;;;;;;;;;;;5.20;99.90;;;;;;5096450;28;20390;-74
2022/12/30 14:58:42;;;;;;;;;;;5.00;99.90;;;;;;5079315;28;20279;-74
2022/12/30 15:01:10;;;;;;;;;;;4.90;99.90;;;;;;5097107;28;19912;-74
2022/12/30 15:03:36;;;;;;;;;;;4.80;99.90;;;;;;5096988;28;19966;-74
2022/12/30 15:06:02;;;;;;;;;;;4.70;99.90;;;;;;5097486;28;20375;-74
2022/12/30 15:08:45;;;;;;;;;;;4.70;99.90;;;;;;5097262;28;19935;-74
2022/12/30 15:11:21;;;;;;;;;;;4.60;99.90;;;;;;5096997;28;19915;-74
2022/12/30 15:13:51;;;;;;;;;;;4.60;99.90;;;;;;5096826;28;19908;-74
2022/12/30 15:16:21;;;;;;;;;;;4.50;99.90;;;;;;5096758;28;19912;-74
2022/12/30 15:18:51;;;;;;;;;;;4.40;99.90;;;;;;5096730;28;19916;-73
2022/12/30 15:21:16;;;;;;;;;;;4.40;99.90;;;;;;5096732;28;19948;-74
2022/12/30 15:23:42;;;;;;;;;;;4.30;99.90;;;;;;5096550;28;19954;-73
2022/12/30 15:26:14;;;;;;;;;;;4.30;99.90;;;;;;5108107;28;19908;-74
2022/12/30 15:28:40;;;;;;;;;;;4.30;99.90;;;;;;5117215;28;19962;-74
2022/12/30 15:31:14;;;;;;;;;;;4.30;99.90;;;;;;5116921;28;20271;-74